sensor_id;sensor_type;location;lat;lon;timestamp;temperature;humidity
18880;DHT22;9572;52.378;13.404;2023-05-27T00:01:46;11.20;99.90
18880;DHT22;9572;52.378;13.404;2023-05-27T00:04:12;11.10;99.90
18880;DHT22;9572;52.378;13.404;2023-05-27T00:06:41;11.10;99.90
18880;DHT22;9572;52.378;13.404;2023-05-27T00:09:08;11.00;99.90
18880;DHT22;9572;52.378;13.404;2023-05-27T00:11:35;11.00;99.90
18880;DHT22;9572;52.378;13.404;2023-05-27T00:14:01;11.00;99.90
18880;DHT22;9572;52.378;13.404;2023-05-27T00:16:28;10.90;99.90
18880;DHT22;9572;52.378;13.404;2023-05-27T00:18:57;10.90;99.90
18880;DHT22;9572;52.378;13.404;2023-05-27T00:21:24;10.80;99.90
18880;DHT22;9572;52.378;13.404;2023-05-27T00:23:53;10.80;99.90
18880;DHT22;9572;52.378;13.404;2023-05-27T00:26:20;10.70;99.90
18880;DHT22;9572;52.378;13.404;2023-05-27T00:28:47;10.70;99.90
18880;DHT22;9572;52.378;13.404;2023-05-27T00:31:14;10.60;99.90
18880;DHT22;9572;52.378;13.404;2023-05-27T00:33:41;10.60;99.90
18880;DHT22;9572;52.378;13.404;2023-05-27T00:36:09;10.50;99.90
18880;DHT22;9572;52.378;13.404;2023-05-27T00:38:36;10.40;99.90
18880;DHT22;9572;52.378;13.404;2023-05-27T00:41:04;10.40;99.90
18880;DHT22;9572;52.378;13.404;2023-05-27T00:43:31;10.30;99.90
18880;DHT22;9572;52.378;13.404;2023-05-27T00:45:58;10.30;99.90
18880;DHT22;9572;52.378;13.404;2023-05-27T00:48:25;10.20;99.90
18880;DHT22;9572;52.378;13.404;2023-05-27T00:50:53;10.20;99.90
18880;DHT22;9572;52.378;13.404;2023-05-27T00:53:20;10.10;99.90
18880;DHT22;9572;52.378;13.404;2023-05-27T00:55:48;10.10;99.90
18880;DHT22;9572;52.378;13.404;2023-05-27T00:58:16;10.10;99.90
18880;DHT22;9572;52.378;13.404;2023-05-27T01:00:46;10.00;99.90
18880;DHT22;9572;52.378;13.404;2023-05-27T01:03:13;10.00;99.90
18880;DHT22;9572;52.378;13.404;2023-05-27T01:05:41;9.90;99.90
18880;DHT22;9572;52.378;13.404;2023-05-27T01:08:16;9.90;99.90
18880;DHT22;9572;52.378;13.404;2023-05-27T01:10:49;9.80;99.90
18880;DHT22;9572;52.378;13.404;2023-05-27T01:13:26;9.80;99.90
18880;DHT22;9572;52.378;13.404;2023-05-27T01:15:54;9.80;99.90
18880;DHT22;9572;52.378;13.404;2023-05-27T01:18:22;9.70;99.90
18880;DHT22;9572;52.378;13.404;2023-05-27T01:20:51;9.70;99.90
18880;DHT22;9572;52.378;13.404;2023-05-27T01:23:21;9.60;99.90
18880;DHT22;9572;52.378;13.404;2023-05-27T01:25:49;9.60;99.90
18880;DHT22;9572;52.378;13.404;2023-05-27T01:28:16;9.60;99.90
18880;DHT22;9572;52.378;13.404;2023-05-27T01:30:43;9.50;99.90
18880;DHT22;9572;52.378;13.404;2023-05-27T01:33:13;9.50;99.90
18880;DHT22;9572;52.378;13.404;2023-05-27T01:35:46;9.50;99.90
18880;DHT22;9572;52.378;13.404;2023-05-27T01:38:18;9.40;99.90
18880;DHT22;9572;52.378;13.404;2023-05-27T01:40:50;9.40;99.90
18880;DHT22;9572;52.378;13.404;2023-05-27T01:43:18;9.30;99.90
18880;DHT22;9572;52.378;13.404;2023-05-27T01:45:45;9.30;99.90
18880;DHT22;9572;52.378;13.404;2023-05-27T01:48:12;9.20;99.90
18880;DHT22;9572;52.378;13.404;2023-05-27T01:50:39;9.20;99.90
18880;DHT22;9572;52.378;13.404;2023-05-27T01:53:06;9.20;99.90
18880;DHT22;9572;52.378;13.404;2023-05-27T01:55:33;9.20;99.90
18880;DHT22;9572;52.378;13.404;2023-05-27T01:58:01;9.10;99.90
18880;DHT22;9572;52.378;13.404;2023-05-27T02:00:28;9.10;99.90
18880;DHT22;9572;52.378;13.404;2023-05-27T02:02:55;9.00;99.90
18880;DHT22;9572;52.378;13.404;2023-05-27T02:05:22;8.90;99.90
18880;DHT22;9572;52.378;13.404;2023-05-27T02:07:49;8.90;99.90
18880;DHT22;9572;52.378;13.404;2023-05-27T02:10:16;8.90;99.90
18880;DHT22;9572;52.378;13.404;2023-05-27T02:12:42;8.90;99.90
18880;DHT22;9572;52.378;13.404;2023-05-27T02:15:11;8.80;99.90
18880;DHT22;9572;52.378;13.404;2023-05-27T02:17:38;8.80;99.90
18880;DHT22;9572;52.378;13.404;2023-05-27T02:20:05;8.70;99.90
18880;DHT22;9572;52.378;13.404;2023-05-27T02:22:32;8.70;99.90
18880;DHT22;9572;52.378;13.404;2023-05-27T02:24:59;8.70;99.90
18880;DHT22;9572;52.378;13.404;2023-05-27T02:27:26;8.60;99.90
18880;DHT22;9572;52.378;13.404;2023-05-27T02:29:53;8.60;99.90
18880;DHT22;9572;52.378;13.404;2023-05-27T02:32:22;8.60;99.90
18880;DHT22;9572;52.378;13.404;2023-05-27T02:34:48;8.60;99.90
18880;DHT22;9572;52.378;13.404;2023-05-27T02:37:15;8.50;99.90
18880;DHT22;9572;52.378;13.404;2023-05-27T02:39:42;8.50;99.90
18880;DHT22;9572;52.378;13.404;2023-05-27T02:42:09;8.50;99.90
18880;DHT22;9572;52.378;13.404;2023-05-27T02:44:36;8.50;99.90
18880;DHT22;9572;52.378;13.404;2023-05-27T02:47:03;8.40;99.90
18880;DHT22;9572;52.378;13.404;2023-05-27T02:49:31;8.40;99.90
18880;DHT22;9572;52.378;13.404;2023-05-27T02:51:58;8.40;99.90
18880;DHT22;9572;52.378;13.404;2023-05-27T02:54:25;8.40;99.90
18880;DHT22;9572;52.378;13.404;2023-05-27T02:56:52;8.40;99.90
18880;DHT22;9572;52.378;13.404;2023-05-27T02:59:19;8.30;99.90
18880;DHT22;9572;52.378;13.404;2023-05-27T03:01:45;8.30;99.90
18880;DHT22;9572;52.378;13.404;2023-05-27T03:04:12;8.30;99.90
18880;DHT22;9572;52.378;13.404;2023-05-27T03:06:41;8.20;99.90
18880;DHT22;9572;52.378;13.404;2023-05-27T03:09:08;8.20;99.90
18880;DHT22;9572;52.378;13.404;2023-05-27T03:11:34;8.20;99.90
18880;DHT22;9572;52.378;13.404;2023-05-27T03:14:01;8.20;99.90
18880;DHT22;9572;52.378;13.404;2023-05-27T03:16:28;8.20;99.90
18880;DHT22;9572;52.378;13.404;2023-05-27T03:18:55;8.20;99.90
18880;DHT22;9572;52.378;13.404;2023-05-27T03:21:22;8.20;99.90
18880;DHT22;9572;52.378;13.404;2023-05-27T03:23:50;8.10;99.90
18880;DHT22;9572;52.378;13.404;2023-05-27T03:26:17;8.20;99.90
18880;DHT22;9572;52.378;13.404;2023-05-27T03:28:44;8.20;99.90
18880;DHT22;9572;52.378;13.404;2023-05-27T03:31:11;8.20;99.90
18880;DHT22;9572;52.378;13.404;2023-05-27T03:33:39;8.20;99.90
18880;DHT22;9572;52.378;13.404;2023-05-27T03:36:06;8.20;99.90
18880;DHT22;9572;52.378;13.404;2023-05-27T03:38:33;8.20;99.90
18880;DHT22;9572;52.378;13.404;2023-05-27T03:41:02;8.20;99.90
18880;DHT22;9572;52.378;13.404;2023-05-27T03:43:28;8.20;99.90
18880;DHT22;9572;52.378;13.404;2023-05-27T03:45:55;8.30;99.90
18880;DHT22;9572;52.378;13.404;2023-05-27T03:48:22;8.30;99.90
18880;DHT22;9572;52.378;13.404;2023-05-27T03:50:49;8.30;99.90
18880;DHT22;9572;52.378;13.404;2023-05-27T03:53:16;8.30;99.90
18880;DHT22;9572;52.378;13.404;2023-05-27T03:55:43;8.40;99.90
18880;DHT22;9572;52.378;13.404;2023-05-27T03:58:11;8.40;99.90
18880;DHT22;9572;52.378;13.404;2023-05-27T04:00:39;8.40;99.90
18880;DHT22;9572;52.378;13.404;2023-05-27T04:03:07;8.40;99.90
18880;DHT22;9572;52.378;13.404;2023-05-27T04:05:34;8.50;99.90
18880;DHT22;9572;52.378;13.404;2023-05-27T04:08:03;8.50;99.90
18880;DHT22;9572;52.378;13.404;2023-05-27T04:10:30;8.50;99.90
18880;DHT22;9572;52.378;13.404;2023-05-27T04:12:56;8.60;99.90
18880;DHT22;9572;52.378;13.404;2023-05-27T04:15:25;8.60;99.90
18880;DHT22;9572;52.378;13.404;2023-05-27T04:17:52;8.60;99.90
18880;DHT22;9572;52.378;13.404;2023-05-27T04:20:20;8.70;99.90
18880;DHT22;9572;52.378;13.404;2023-05-27T04:22:47;8.70;99.90
18880;DHT22;9572;52.378;13.404;2023-05-27T04:25:14;8.70;99.90
18880;DHT22;9572;52.378;13.404;2023-05-27T04:27:41;8.80;99.90
18880;DHT22;9572;52.378;13.404;2023-05-27T04:30:08;8.80;99.90
18880;DHT22;9572;52.378;13.404;2023-05-27T04:32:37;8.90;99.90
18880;DHT22;9572;52.378;13.404;2023-05-27T04:35:05;9.00;99.90
18880;DHT22;9572;52.378;13.404;2023-05-27T04:37:34;9.10;99.90
18880;DHT22;9572;52.378;13.404;2023-05-27T04:40:02;9.20;99.90
18880;DHT22;9572;52.378;13.404;2023-05-27T04:42:31;9.30;99.90
18880;DHT22;9572;52.378;13.404;2023-05-27T04:44:58;9.40;99.90
18880;DHT22;9572;52.378;13.404;2023-05-27T04:47:27;9.50;99.90
18880;DHT22;9572;52.378;13.404;2023-05-27T04:49:55;9.60;99.90
18880;DHT22;9572;52.378;13.404;2023-05-27T04:52:22;9.70;99.90
18880;DHT22;9572;52.378;13.404;2023-05-27T04:54:49;9.80;99.90
18880;DHT22;9572;52.378;13.404;2023-05-27T04:57:16;9.80;99.90
18880;DHT22;9572;52.378;13.404;2023-05-27T04:59:44;10.00;99.90
18880;DHT22;9572;52.378;13.404;2023-05-27T05:02:25;10.10;99.90
18880;DHT22;9572;52.378;13.404;2023-05-27T05:05:00;10.20;99.90
18880;DHT22;9572;52.378;13.404;2023-05-27T05:07:27;10.40;99.90
18880;DHT22;9572;52.378;13.404;2023-05-27T05:09:54;10.60;99.90
18880;DHT22;9572;52.378;13.404;2023-05-27T05:12:21;10.70;99.90
18880;DHT22;9572;52.378;13.404;2023-05-27T05:14:48;10.90;99.90
18880;DHT22;9572;52.378;13.404;2023-05-27T05:17:15;11.00;99.90
18880;DHT22;9572;52.378;13.404;2023-05-27T05:19:42;11.20;99.90
18880;DHT22;9572;52.378;13.404;2023-05-27T05:22:10;11.40;99.90
18880;DHT22;9572;52.378;13.404;2023-05-27T05:24:38;11.60;99.90
18880;DHT22;9572;52.378;13.404;2023-05-27T05:27:05;11.80;99.90
18880;DHT22;9572;52.378;13.404;2023-05-27T05:29:32;12.00;99.90
18880;DHT22;9572;52.378;13.404;2023-05-27T05:31:59;12.30;99.90
18880;DHT22;9572;52.378;13.404;2023-05-27T05:34:26;12.60;99.90
18880;DHT22;9572;52.378;13.404;2023-05-27T05:36:53;12.80;99.90
18880;DHT22;9572;52.378;13.404;2023-05-27T05:39:22;13.00;99.90
18880;DHT22;9572;52.378;13.404;2023-05-27T05:41:49;13.20;99.90
18880;DHT22;9572;52.378;13.404;2023-05-27T05:44:16;13.40;99.90
18880;DHT22;9572;52.378;13.404;2023-05-27T05:46:43;13.50;99.90
18880;DHT22;9572;52.378;13.404;2023-05-27T05:49:10;13.70;99.90
18880;DHT22;9572;52.378;13.404;2023-05-27T05:51:37;14.00;99.90
18880;DHT22;9572;52.378;13.404;2023-05-27T05:54:04;14.20;99.90
18880;DHT22;9572;52.378;13.404;2023-05-27T05:56:32;14.40;99.90
18880;DHT22;9572;52.378;13.404;2023-05-27T05:58:59;14.80;99.90
18880;DHT22;9572;52.378;13.404;2023-05-27T06:01:26;14.80;99.90
18880;DHT22;9572;52.378;13.404;2023-05-27T06:03:53;15.10;99.90
18880;DHT22;9572;52.378;13.404;2023-05-27T06:06:20;15.30;99.90
18880;DHT22;9572;52.378;13.404;2023-05-27T06:08:47;15.60;99.90
18880;DHT22;9572;52.378;13.404;2023-05-27T06:11:14;16.00;99.90
18880;DHT22;9572;52.378;13.404;2023-05-27T06:13:42;16.10;99.90
18880;DHT22;9572;52.378;13.404;2023-05-27T06:16:09;16.00;99.90
18880;DHT22;9572;52.378;13.404;2023-05-27T06:18:36;16.20;99.90
18880;DHT22;9572;52.378;13.404;2023-05-27T06:21:03;16.40;99.90
18880;DHT22;9572;52.378;13.404;2023-05-27T06:23:30;16.80;99.90
18880;DHT22;9572;52.378;13.404;2023-05-27T06:25:57;17.10;99.90
18880;DHT22;9572;52.378;13.404;2023-05-27T06:28:24;17.20;99.90
18880;DHT22;9572;52.378;13.404;2023-05-27T06:30:52;17.50;99.90
18880;DHT22;9572;52.378;13.404;2023-05-27T06:33:19;17.40;99.90
18880;DHT22;9572;52.378;13.404;2023-05-27T06:35:46;17.70;99.90
18880;DHT22;9572;52.378;13.404;2023-05-27T06:38:12;17.90;99.90
18880;DHT22;9572;52.378;13.404;2023-05-27T06:40:39;18.00;99.90
18880;DHT22;9572;52.378;13.404;2023-05-27T06:43:06;17.80;99.90
18880;DHT22;9572;52.378;13.404;2023-05-27T06:45:33;17.90;99.90
18880;DHT22;9572;52.378;13.404;2023-05-27T06:48:01;17.90;99.90
18880;DHT22;9572;52.378;13.404;2023-05-27T06:50:29;18.00;99.90
18880;DHT22;9572;52.378;13.404;2023-05-27T06:52:55;18.10;99.90
18880;DHT22;9572;52.378;13.404;2023-05-27T06:55:22;18.40;99.90
18880;DHT22;9572;52.378;13.404;2023-05-27T06:57:50;18.60;99.90
18880;DHT22;9572;52.378;13.404;2023-05-27T07:00:17;18.80;99.90
18880;DHT22;9572;52.378;13.404;2023-05-27T07:02:44;19.10;99.90
18880;DHT22;9572;52.378;13.404;2023-05-27T07:05:13;19.10;99.90
18880;DHT22;9572;52.378;13.404;2023-05-27T07:07:40;19.30;99.90
18880;DHT22;9572;52.378;13.404;2023-05-27T07:10:07;19.40;99.90
18880;DHT22;9572;52.378;13.404;2023-05-27T07:12:34;19.20;99.90
18880;DHT22;9572;52.378;13.404;2023-05-27T07:15:01;19.30;99.90
18880;DHT22;9572;52.378;13.404;2023-05-27T07:17:28;19.40;99.90
18880;DHT22;9572;52.378;13.404;2023-05-27T07:19:55;19.60;99.90
18880;DHT22;9572;52.378;13.404;2023-05-27T07:22:23;19.60;99.90
18880;DHT22;9572;52.378;13.404;2023-05-27T07:24:51;19.60;99.90
18880;DHT22;9572;52.378;13.404;2023-05-27T07:27:18;19.80;99.90
18880;DHT22;9572;52.378;13.404;2023-05-27T07:29:44;20.20;99.90
18880;DHT22;9572;52.378;13.404;2023-05-27T07:32:11;20.30;99.90
18880;DHT22;9572;52.378;13.404;2023-05-27T07:34:38;20.40;99.90
18880;DHT22;9572;52.378;13.404;2023-05-27T07:37:05;20.40;99.90
18880;DHT22;9572;52.378;13.404;2023-05-27T07:39:33;20.60;99.90
18880;DHT22;9572;52.378;13.404;2023-05-27T07:42:00;20.80;99.90
18880;DHT22;9572;52.378;13.404;2023-05-27T07:44:27;21.00;99.90
18880;DHT22;9572;52.378;13.404;2023-05-27T07:46:54;21.20;99.90
18880;DHT22;9572;52.378;13.404;2023-05-27T07:49:21;21.10;99.90
18880;DHT22;9572;52.378;13.404;2023-05-27T07:51:50;21.20;99.90
18880;DHT22;9572;52.378;13.404;2023-05-27T07:54:17;21.20;99.90
18880;DHT22;9572;52.378;13.404;2023-05-27T07:56:45;21.50;99.90
18880;DHT22;9572;52.378;13.404;2023-05-27T07:59:12;21.80;99.90
18880;DHT22;9572;52.378;13.404;2023-05-27T08:01:39;22.20;99.90
18880;DHT22;9572;52.378;13.404;2023-05-27T08:04:06;22.30;99.90
18880;DHT22;9572;52.378;13.404;2023-05-27T08:06:32;21.80;99.90
18880;DHT22;9572;52.378;13.404;2023-05-27T08:08:59;21.50;99.90
18880;DHT22;9572;52.378;13.404;2023-05-27T08:11:27;21.60;99.50
18880;DHT22;9572;52.378;13.404;2023-05-27T08:13:55;21.60;99.10
18880;DHT22;9572;52.378;13.404;2023-05-27T08:16:22;21.60;99.30
18880;DHT22;9572;52.378;13.404;2023-05-27T08:18:49;21.70;98.60
18880;DHT22;9572;52.378;13.404;2023-05-27T08:21:16;22.10;99.90
18880;DHT22;9572;52.378;13.404;2023-05-27T08:23:43;22.40;99.30
18880;DHT22;9572;52.378;13.404;2023-05-27T08:26:10;22.80;98.30
18880;DHT22;9572;52.378;13.404;2023-05-27T08:28:37;23.00;97.20
18880;DHT22;9572;52.378;13.404;2023-05-27T08:31:05;23.00;95.20
18880;DHT22;9572;52.378;13.404;2023-05-27T08:33:33;23.10;97.30
18880;DHT22;9572;52.378;13.404;2023-05-27T08:35:59;23.10;95.30
18880;DHT22;9572;52.378;13.404;2023-05-27T08:38:26;22.80;93.50
18880;DHT22;9572;52.378;13.404;2023-05-27T08:40:53;22.80;94.50
18880;DHT22;9572;52.378;13.404;2023-05-27T08:43:20;23.10;93.10
18880;DHT22;9572;52.378;13.404;2023-05-27T08:45:48;23.30;92.50
18880;DHT22;9572;52.378;13.404;2023-05-27T08:48:16;23.50;90.90
18880;DHT22;9572;52.378;13.404;2023-05-27T08:50:43;23.10;89.00
18880;DHT22;9572;52.378;13.404;2023-05-27T08:53:12;23.00;90.60
18880;DHT22;9572;52.378;13.404;2023-05-27T08:55:40;23.30;92.20
18880;DHT22;9572;52.378;13.404;2023-05-27T08:58:09;23.60;90.80
18880;DHT22;9572;52.378;13.404;2023-05-27T09:00:37;23.20;89.90
18880;DHT22;9572;52.378;13.404;2023-05-27T09:03:04;23.40;88.10
18880;DHT22;9572;52.378;13.404;2023-05-27T09:05:32;23.20;89.70
18880;DHT22;9572;52.378;13.404;2023-05-27T09:07:59;23.40;87.40
18880;DHT22;9572;52.378;13.404;2023-05-27T09:10:35;23.80;86.60
18880;DHT22;9572;52.378;13.404;2023-05-27T09:13:02;24.20;87.10
18880;DHT22;9572;52.378;13.404;2023-05-27T09:15:30;24.50;83.50
18880;DHT22;9572;52.378;13.404;2023-05-27T09:17:58;24.10;80.60
18880;DHT22;9572;52.378;13.404;2023-05-27T09:20:25;24.40;81.60
18880;DHT22;9572;52.378;13.404;2023-05-27T09:22:57;23.90;76.20
18880;DHT22;9572;52.378;13.404;2023-05-27T09:25:28;23.30;77.50
18880;DHT22;9572;52.378;13.404;2023-05-27T09:27:57;23.50;79.50
18880;DHT22;9572;52.378;13.404;2023-05-27T09:30:24;24.00;79.00
18880;DHT22;9572;52.378;13.404;2023-05-27T09:33:00;24.20;77.40
18880;DHT22;9572;52.378;13.404;2023-05-27T09:35:27;24.50;76.20
18880;DHT22;9572;52.378;13.404;2023-05-27T09:37:54;24.50;77.20
18880;DHT22;9572;52.378;13.404;2023-05-27T09:40:22;24.50;75.90
18880;DHT22;9572;52.378;13.404;2023-05-27T09:42:52;24.70;75.10
18880;DHT22;9572;52.378;13.404;2023-05-27T09:45:20;24.80;76.40
18880;DHT22;9572;52.378;13.404;2023-05-27T09:47:49;25.00;74.80
18880;DHT22;9572;52.378;13.404;2023-05-27T09:50:16;25.40;75.10
18880;DHT22;9572;52.378;13.404;2023-05-27T09:52:44;25.70;74.10
18880;DHT22;9572;52.378;13.404;2023-05-27T09:55:14;25.80;71.80
18880;DHT22;9572;52.378;13.404;2023-05-27T09:57:44;26.00;73.20
18880;DHT22;9572;52.378;13.404;2023-05-27T10:00:12;25.80;74.10
18880;DHT22;9572;52.378;13.404;2023-05-27T10:02:41;26.00;71.90
18880;DHT22;9572;52.378;13.404;2023-05-27T10:05:10;26.00;71.80
18880;DHT22;9572;52.378;13.404;2023-05-27T10:07:38;25.80;67.70
18880;DHT22;9572;52.378;13.404;2023-05-27T10:10:08;25.70;71.50
18880;DHT22;9572;52.378;13.404;2023-05-27T10:12:36;25.30;69.00
18880;DHT22;9572;52.378;13.404;2023-05-27T10:15:06;25.40;73.60
18880;DHT22;9572;52.378;13.404;2023-05-27T10:17:41;25.50;73.90
18880;DHT22;9572;52.378;13.404;2023-05-27T10:20:09;25.40;69.20
18880;DHT22;9572;52.378;13.404;2023-05-27T10:22:43;25.20;72.10
18880;DHT22;9572;52.378;13.404;2023-05-27T10:25:12;25.70;72.30
18880;DHT22;9572;52.378;13.404;2023-05-27T10:27:44;25.50;69.30
18880;DHT22;9572;52.378;13.404;2023-05-27T10:30:15;25.50;72.20
18880;DHT22;9572;52.378;13.404;2023-05-27T10:32:43;25.50;70.50
18880;DHT22;9572;52.378;13.404;2023-05-27T10:35:11;25.70;69.00
18880;DHT22;9572;52.378;13.404;2023-05-27T10:37:37;25.90;69.50
18880;DHT22;9572;52.378;13.404;2023-05-27T10:40:06;26.00;70.00
18880;DHT22;9572;52.378;13.404;2023-05-27T10:42:33;26.00;68.00
18880;DHT22;9572;52.378;13.404;2023-05-27T10:45:08;26.30;70.60
18880;DHT22;9572;52.378;13.404;2023-05-27T10:47:37;26.50;68.40
18880;DHT22;9572;52.378;13.404;2023-05-27T10:50:12;26.20;67.90
18880;DHT22;9572;52.378;13.404;2023-05-27T10:52:40;26.30;67.50
18880;DHT22;9572;52.378;13.404;2023-05-27T10:55:08;26.20;67.20
18880;DHT22;9572;52.378;13.404;2023-05-27T10:57:35;26.40;66.60
18880;DHT22;9572;52.378;13.404;2023-05-27T11:00:04;26.70;69.40
18880;DHT22;9572;52.378;13.404;2023-05-27T11:02:35;26.90;68.40
18880;DHT22;9572;52.378;13.404;2023-05-27T11:05:09;26.70;67.30
18880;DHT22;9572;52.378;13.404;2023-05-27T11:07:37;26.70;63.70
18880;DHT22;9572;52.378;13.404;2023-05-27T11:10:06;26.00;66.50
18880;DHT22;9572;52.378;13.404;2023-05-27T11:12:34;26.00;68.20
18880;DHT22;9572;52.378;13.404;2023-05-27T11:15:01;25.70;67.20
18880;DHT22;9572;52.378;13.404;2023-05-27T11:17:28;25.30;67.70
18880;DHT22;9572;52.378;13.404;2023-05-27T11:19:55;25.20;69.00
18880;DHT22;9572;52.378;13.404;2023-05-27T11:22:24;24.90;68.30
18880;DHT22;9572;52.378;13.404;2023-05-27T11:24:58;24.90;73.30
18880;DHT22;9572;52.378;13.404;2023-05-27T11:27:32;25.20;69.50
18880;DHT22;9572;52.378;13.404;2023-05-27T11:29:59;25.60;71.10
18880;DHT22;9572;52.378;13.404;2023-05-27T11:32:33;25.50;68.90
18880;DHT22;9572;52.378;13.404;2023-05-27T11:35:00;25.80;70.20
18880;DHT22;9572;52.378;13.404;2023-05-27T11:37:33;25.90;69.60
18880;DHT22;9572;52.378;13.404;2023-05-27T11:40:00;25.80;68.60
18880;DHT22;9572;52.378;13.404;2023-05-27T11:42:28;25.80;68.70
18880;DHT22;9572;52.378;13.404;2023-05-27T11:44:56;25.80;65.30
18880;DHT22;9572;52.378;13.404;2023-05-27T11:47:25;25.70;65.70
18880;DHT22;9572;52.378;13.404;2023-05-27T11:49:52;25.90;65.80
18880;DHT22;9572;52.378;13.404;2023-05-27T11:52:19;25.80;67.20
18880;DHT22;9572;52.378;13.404;2023-05-27T11:54:50;25.60;66.90
18880;DHT22;9572;52.378;13.404;2023-05-27T11:57:17;25.60;66.60
18880;DHT22;9572;52.378;13.404;2023-05-27T11:59:44;25.10;67.50
18880;DHT22;9572;52.378;13.404;2023-05-27T12:02:11;25.00;67.90
18880;DHT22;9572;52.378;13.404;2023-05-27T12:04:38;25.00;67.30
18880;DHT22;9572;52.378;13.404;2023-05-27T12:07:05;25.00;70.50
18880;DHT22;9572;52.378;13.404;2023-05-27T12:09:31;25.40;73.20
18880;DHT22;9572;52.378;13.404;2023-05-27T12:12:00;25.50;69.10
18880;DHT22;9572;52.378;13.404;2023-05-27T12:14:27;25.90;69.80
18880;DHT22;9572;52.378;13.404;2023-05-27T12:16:54;26.00;69.50
18880;DHT22;9572;52.378;13.404;2023-05-27T12:19:21;26.10;68.30
18880;DHT22;9572;52.378;13.404;2023-05-27T12:21:48;25.80;70.00
18880;DHT22;9572;52.378;13.404;2023-05-27T12:24:14;25.80;68.50
18880;DHT22;9572;52.378;13.404;2023-05-27T12:26:41;24.80;66.40
18880;DHT22;9572;52.378;13.404;2023-05-27T12:29:12;24.20;69.60
18880;DHT22;9572;52.378;13.404;2023-05-27T12:31:39;24.10;68.00
18880;DHT22;9572;52.378;13.404;2023-05-27T12:34:05;24.40;68.80
18880;DHT22;9572;52.378;13.404;2023-05-27T12:36:32;24.70;71.40
18880;DHT22;9572;52.378;13.404;2023-05-27T12:38:59;25.00;72.50
18880;DHT22;9572;52.378;13.404;2023-05-27T12:41:26;25.30;70.70
18880;DHT22;9572;52.378;13.404;2023-05-27T12:43:53;25.10;67.10
18880;DHT22;9572;52.378;13.404;2023-05-27T12:46:21;24.90;69.00
18880;DHT22;9572;52.378;13.404;2023-05-27T12:48:49;24.60;69.50
18880;DHT22;9572;52.378;13.404;2023-05-27T12:51:15;24.80;69.90
18880;DHT22;9572;52.378;13.404;2023-05-27T12:53:42;24.90;68.50
18880;DHT22;9572;52.378;13.404;2023-05-27T12:56:09;25.20;71.90
18880;DHT22;9572;52.378;13.404;2023-05-27T12:58:36;25.20;69.80
18880;DHT22;9572;52.378;13.404;2023-05-27T13:01:03;25.00;66.00
18880;DHT22;9572;52.378;13.404;2023-05-27T13:03:32;24.80;68.50
18880;DHT22;9572;52.378;13.404;2023-05-27T13:05:59;24.90;69.40
18880;DHT22;9572;52.378;13.404;2023-05-27T13:08:26;24.50;68.30
18880;DHT22;9572;52.378;13.404;2023-05-27T13:10:53;24.30;71.60
18880;DHT22;9572;52.378;13.404;2023-05-27T13:13:20;24.40;67.60
18880;DHT22;9572;52.378;13.404;2023-05-27T13:15:47;24.60;68.50
18880;DHT22;9572;52.378;13.404;2023-05-27T13:18:14;24.60;71.20
18880;DHT22;9572;52.378;13.404;2023-05-27T13:20:42;24.70;69.80
18880;DHT22;9572;52.378;13.404;2023-05-27T13:23:10;24.70;71.50
18880;DHT22;9572;52.378;13.404;2023-05-27T13:25:37;24.70;68.90
18880;DHT22;9572;52.378;13.404;2023-05-27T13:28:04;24.60;69.60
18880;DHT22;9572;52.378;13.404;2023-05-27T13:30:31;24.80;70.60
18880;DHT22;9572;52.378;13.404;2023-05-27T13:32:58;24.70;70.70
18880;DHT22;9572;52.378;13.404;2023-05-27T13:35:25;24.40;70.60
18880;DHT22;9572;52.378;13.404;2023-05-27T13:37:53;23.80;70.10
18880;DHT22;9572;52.378;13.404;2023-05-27T13:40:21;23.90;71.00
18880;DHT22;9572;52.378;13.404;2023-05-27T13:42:48;24.10;70.80
18880;DHT22;9572;52.378;13.404;2023-05-27T13:45:14;24.10;70.60
18880;DHT22;9572;52.378;13.404;2023-05-27T13:47:41;24.30;72.90
18880;DHT22;9572;52.378;13.404;2023-05-27T13:50:10;23.90;69.00
18880;DHT22;9572;52.378;13.404;2023-05-27T13:52:37;24.20;71.70
18880;DHT22;9572;52.378;13.404;2023-05-27T13:55:07;24.40;72.90
18880;DHT22;9572;52.378;13.404;2023-05-27T13:57:34;24.60;69.90
18880;DHT22;9572;52.378;13.404;2023-05-27T14:00:00;24.80;68.20
18880;DHT22;9572;52.378;13.404;2023-05-27T14:02:27;25.00;69.40
18880;DHT22;9572;52.378;13.404;2023-05-27T14:04:54;25.30;70.50
18880;DHT22;9572;52.378;13.404;2023-05-27T14:07:21;25.50;67.60
18880;DHT22;9572;52.378;13.404;2023-05-27T14:09:49;25.50;69.20
18880;DHT22;9572;52.378;13.404;2023-05-27T14:12:17;25.70;71.00
18880;DHT22;9572;52.378;13.404;2023-05-27T14:14:44;25.60;67.10
18880;DHT22;9572;52.378;13.404;2023-05-27T14:17:11;25.20;70.00
18880;DHT22;9572;52.378;13.404;2023-05-27T14:19:38;25.00;69.20
18880;DHT22;9572;52.378;13.404;2023-05-27T14:22:04;25.20;71.90
18880;DHT22;9572;52.378;13.404;2023-05-27T14:24:31;25.00;68.70
18880;DHT22;9572;52.378;13.404;2023-05-27T14:26:58;24.90;68.10
18880;DHT22;9572;52.378;13.404;2023-05-27T14:29:28;24.60;70.60
18880;DHT22;9572;52.378;13.404;2023-05-27T14:31:54;24.40;70.30
18880;DHT22;9572;52.378;13.404;2023-05-27T14:34:21;24.60;70.20
18880;DHT22;9572;52.378;13.404;2023-05-27T14:36:48;24.70;70.20
18880;DHT22;9572;52.378;13.404;2023-05-27T14:39:16;24.90;71.40
18880;DHT22;9572;52.378;13.404;2023-05-27T14:41:43;25.00;69.10
18880;DHT22;9572;52.378;13.404;2023-05-27T14:44:10;25.30;71.50
18880;DHT22;9572;52.378;13.404;2023-05-27T14:46:38;25.20;68.70
18880;DHT22;9572;52.378;13.404;2023-05-27T14:49:05;25.20;71.50
18880;DHT22;9572;52.378;13.404;2023-05-27T14:51:32;25.30;70.40
18880;DHT22;9572;52.378;13.404;2023-05-27T14:53:59;25.30;68.90
18880;DHT22;9572;52.378;13.404;2023-05-27T14:56:26;25.30;72.40
18880;DHT22;9572;52.378;13.404;2023-05-27T14:58:53;25.20;69.60
18880;DHT22;9572;52.378;13.404;2023-05-27T15:01:20;25.00;69.40
18880;DHT22;9572;52.378;13.404;2023-05-27T15:03:48;25.00;70.80
18880;DHT22;9572;52.378;13.404;2023-05-27T15:06:15;24.90;73.50
18880;DHT22;9572;52.378;13.404;2023-05-27T15:08:42;25.10;71.20
18880;DHT22;9572;52.378;13.404;2023-05-27T15:11:08;25.20;72.30
18880;DHT22;9572;52.378;13.404;2023-05-27T15:13:35;25.20;71.60
18880;DHT22;9572;52.378;13.404;2023-05-27T15:16:02;25.00;68.90
18880;DHT22;9572;52.378;13.404;2023-05-27T15:18:30;25.00;70.00
18880;DHT22;9572;52.378;13.404;2023-05-27T15:20:58;24.40;71.30
18880;DHT22;9572;52.378;13.404;2023-05-27T15:23:25;24.00;70.50
18880;DHT22;9572;52.378;13.404;2023-05-27T15:25:52;23.90;71.40
18880;DHT22;9572;52.378;13.404;2023-05-27T15:28:19;23.90;71.50
18880;DHT22;9572;52.378;13.404;2023-05-27T15:30:46;23.90;71.90
18880;DHT22;9572;52.378;13.404;2023-05-27T15:33:13;23.90;74.40
18880;DHT22;9572;52.378;13.404;2023-05-27T15:35:40;23.90;73.60
18880;DHT22;9572;52.378;13.404;2023-05-27T15:38:09;23.70;73.90